Terminal Aerodrome Forecast
Issued by NWS

Home | Current Version | Previous Version | Text Only | Print | Product List | Glossary On
Versions: 1 2 3 4 5 6 7 8 9 10 11 12 13
256
FTAK31 PAJN 291121
TAFAJN
TAF
PAJN 291121Z 2912/3012 00000KT P6SM BCFG FEW001 SCT004
      TEMPO 2912/2916 1 1/2SM BR SCT001 BKN004
     FM291800 VRB06KT P6SM SKC WS020/06025KT
     FM300300 VRB05KT P6SM SKC WS020/06035KT
     FM300900 00000KT P6SM SKC WS020/06050KT=

USA.gov is the U.S. government's official web portal to all federal, state and local government web resources and services.